Time;durP1;ratioP1;P1;durP2;ratioP2;P2;SDS_P1;SDS_P2;PMS_P1;PMS_P2;Temp;Humidity;BMP_temperature;BMP_pressure;BME280_temperature;BME280_humidity;BME280_pressure;Samples;Min_cycle;Max_cycle;Signal;HPM_P1;HPM_P2
2022/08/13 00:01:40;;;;;;;1.63;1.53;;;;;;;19.98;41.12;98961.66;5115613;27;41786;-76
2022/08/13 00:04:09;;;;;;;1.17;1.07;;;;;;;20.01;41.51;98979.34;5098246;27;42141;-76
2022/08/13 00:07:04;;;;;;;3.03;1.37;;;;;;;19.95;42.09;98975.41;5115196;27;42150;-76
2022/08/13 00:09:34;;;;;;;1.23;1.13;;;;;;;19.90;41.36;98976.88;5114189;27;39876;-76
2022/08/13 00:14:50;;;;;;;1.20;1.10;;;;;;;19.80;41.24;98976.06;5063417;27;42107;-76
2022/08/13 00:17:19;;;;;;;1.23;1.13;;;;;;;19.75;41.22;98978.38;5115112;27;43513;-76
2022/08/13 00:19:50;;;;;;;1.40;1.30;;;;;;;19.70;40.77;98976.13;5114842;27;41388;-75
2022/08/13 00:22:19;;;;;;;1.27;1.17;;;;;;;19.64;40.95;98976.75;5133774;27;41400;-75
2022/08/13 00:24:48;;;;;;;1.33;1.23;;;;;;;19.60;42.12;98964.59;5097649;27;41999;-76
2022/08/13 00:27:16;;;;;;;1.50;1.30;;;;;;;19.58;41.76;98971.97;5096904;27;43970;-76
2022/08/13 00:29:44;;;;;;;1.87;1.53;;;;;;;19.54;41.84;98967.88;5097681;27;38489;-75
2022/08/13 00:32:11;;;;;;;1.20;1.10;;;;;;;19.52;42.13;98962.69;5115193;27;41993;-76
2022/08/13 00:34:39;;;;;;;1.83;1.30;;;;;;;19.50;42.67;98961.97;5097621;27;42128;-77
2022/08/13 00:37:09;;;;;;;1.40;1.30;;;;;;;19.37;42.21;98943.50;5114678;27;42237;-75
2022/08/13 00:39:37;;;;;;;1.30;1.20;;;;;;;19.46;42.27;98973.13;5133065;27;40879;-76
2022/08/13 00:42:07;;;;;;;2.07;1.07;;;;;;;19.42;42.20;98964.50;5097743;27;42056;-75
2022/08/13 00:44:34;;;;;;;1.40;1.30;;;;;;;19.40;42.58;98961.16;5132981;27;43718;-76
2022/08/13 00:49:48;;;;;;;1.00;1.00;;;;;;;19.33;42.26;98962.72;5097470;27;41363;-75
2022/08/13 00:52:15;;;;;;;1.40;1.30;;;;;;;19.18;41.87;98948.94;5097405;27;41999;-75
2022/08/13 00:54:43;;;;;;;1.10;1.10;;;;;;;19.23;41.99;98957.41;5114545;27;41581;-76
2022/08/13 00:57:12;;;;;;;1.33;1.23;;;;;;;19.19;41.97;98955.16;5097717;27;42263;-75
2022/08/13 00:59:40;;;;;;;1.23;1.13;;;;;;;19.16;42.13;98955.47;5114562;27;38831;-76
2022/08/13 01:02:10;;;;;;;1.20;1.20;;;;;;;19.13;42.23;98958.44;5114159;27;40890;-75
2022/08/13 01:04:40;;;;;;;0.97;0.97;;;;;;;19.08;42.42;98958.03;5097221;27;44253;-76
2022/08/13 01:07:08;;;;;;;1.53;0.93;;;;;;;19.02;42.53;98954.97;5114255;27;41156;-76
2022/08/13 01:09:37;;;;;;;1.60;1.20;;;;;;;18.89;42.47;98946.38;5132716;27;40028;-76
2022/08/13 01:12:07;;;;;;;1.33;1.10;;;;;;;18.87;42.69;98952.88;5114520;27;40684;-76
2022/08/13 01:14:37;;;;;;;1.10;1.10;;;;;;;18.87;42.40;98956.41;5097097;27;41971;-76
2022/08/13 01:17:05;;;;;;;1.40;1.30;;;;;;;18.74;42.56;98950.50;5114410;27;41451;-75
2022/08/13 01:19:34;;;;;;;1.00;1.00;;;;;;;18.76;42.73;98959.25;5132754;27;39954;-76
2022/08/13 01:22:04;;;;;;;1.10;1.00;;;;;;;18.71;43.16;98955.31;5132401;27;41904;-75
2022/08/13 01:24:32;;;;;;;1.20;1.10;;;;;;;18.66;44.11;98953.09;5113693;27;41757;-76
2022/08/13 01:27:00;;;;;;;1.27;1.17;;;;;;;18.62;43.92;98946.31;5113805;27;42285;-76
2022/08/13 01:29:28;;;;;;;1.47;1.20;;;;;;;18.59;43.82;98951.94;5097097;27;40647;-76
2022/08/13 01:31:56;;;;;;;1.13;1.00;;;;;;;18.54;43.50;98954.19;5114067;27;41740;-75
2022/08/13 01:34:25;;;;;;;1.30;1.20;;;;;;;18.51;44.20;98955.34;5096869;27;42583;-76
2022/08/13 01:36:55;;;;;;;2.50;1.10;;;;;;;18.49;44.42;98946.56;5096493;27;42307;-76
2022/08/13 01:39:24;;;;;;;1.30;1.20;;;;;;;18.49;44.86;98945.72;5096894;27;40243;-76
2022/08/13 01:41:53;;;;;;;2.17;1.40;;;;;;;18.47;44.40;98948.56;5113890;27;41818;-76
2022/08/13 01:44:22;;;;;;;1.23;1.10;;;;;;;18.46;44.36;98946.00;5114259;27;42965;-75
2022/08/13 01:52:34;;;;;;;1.07;1.07;;;;;;;18.40;44.11;98946.59;5097303;27;41670;-76
2022/08/13 01:55:05;;;;;;;1.20;1.10;;;;;;;18.30;44.26;98931.34;5114019;27;41698;-76
2022/08/13 01:57:36;;;;;;;1.40;1.30;;;;;;;18.37;43.85;98941.50;5129764;27;42407;-75
2022/08/13 02:00:07;;;;;;;1.10;1.00;;;;;;;18.35;44.11;98940.81;5114607;27;40031;-76
2022/08/13 02:02:35;;;;;;;0.80;0.80;;;;;;;18.30;44.13;98935.84;5114697;27;42050;-76
2022/08/13 02:05:05;;;;;;;3.47;1.30;;;;;;;18.17;44.26;98917.41;5114103;27;42930;-76
2022/08/13 02:07:32;;;;;;;1.30;1.20;;;;;;;18.24;44.49;98936.44;5114537;27;42795;-76
2022/08/13 02:10:00;;;;;;;1.07;1.07;;;;;;;18.23;44.83;98934.75;5132603;27;39934;-75
2022/08/13 02:12:30;;;;;;;1.47;1.17;;;;;;;18.21;44.99;98937.56;5097199;27;41114;-75
2022/08/13 02:15:01;;;;;;;1.93;1.20;;;;;;;18.19;44.85;98938.69;5132428;27;43599;-75
2022/08/13 02:17:33;;;;;;;1.23;1.10;;;;;;;18.20;44.61;98945.75;5111170;27;42794;-76
2022/08/13 02:20:00;;;;;;;1.30;1.20;;;;;;;18.15;44.63;98930.09;5113716;27;40937;-76
2022/08/13 02:22:29;;;;;;;1.23;1.20;;;;;;;18.11;44.64;98936.72;5114042;27;40779;-75
2022/08/13 02:24:59;;;;;;;1.47;1.20;;;;;;;18.08;44.71;98931.63;5132090;27;42689;-76
2022/08/13 02:27:29;;;;;;;1.23;0.97;;;;;;;18.04;45.20;98924.91;5132402;27;42014;-76
2022/08/13 02:29:59;;;;;;;1.70;1.30;;;;;;;18.00;45.12;98928.84;5113659;27;39071;-76
2022/08/13 02:32:26;;;;;;;1.50;1.27;;;;;;;17.95;45.39;98920.34;5132388;27;42593;-75
2022/08/13 02:34:54;;;;;;;1.27;1.17;;;;;;;17.89;45.53;98923.63;5096849;27;43175;-76
2022/08/13 02:37:23;;;;;;;1.37;1.27;;;;;;;17.83;45.46;98918.81;5113951;27;43243;-76
2022/08/13 02:39:51;;;;;;;1.27;1.17;;;;;;;17.70;45.65;98905.69;5113610;27;39873;-76
2022/08/13 02:42:19;;;;;;;1.20;1.10;;;;;;;17.74;45.61;98920.50;5096505;27;43562;-75
2022/08/13 02:44:51;;;;;;;2.20;1.23;;;;;;;17.67;45.96;98916.69;5113411;27;43103;-75
2022/08/13 02:47:21;;;;;;;1.17;1.07;;;;;;;17.65;45.87;98920.50;5113791;27;41100;-75
2022/08/13 02:49:51;;;;;;;1.30;1.20;;;;;;;17.62;46.04;98920.72;5133250;27;39691;-76
2022/08/13 02:52:20;;;;;;;3.87;1.50;;;;;;;17.57;45.85;98921.97;5100396;27;41707;-76
2022/08/13 02:54:49;;;;;;;1.37;1.27;;;;;;;17.52;45.74;98924.25;5135639;27;42711;-75
2022/08/13 02:57:17;;;;;;;1.20;1.10;;;;;;;17.51;46.15;98917.19;5117363;27;42335;-75
2022/08/13 02:59:45;;;;;;;1.33;1.20;;;;;;;17.48;45.93;98914.78;5117279;27;39932;-76
2022/08/13 03:02:14;;;;;;;1.43;1.03;;;;;;;17.44;45.83;98916.03;5117419;27;41938;-75
2022/08/13 03:04:46;;;;;;;1.43;1.27;;;;;;;17.43;46.21;98910.84;5135234;27;44079;-75
2022/08/13 03:07:13;;;;;;;1.93;1.10;;;;;;;17.39;46.20;98912.94;5113533;27;42338;-76
2022/08/13 03:09:41;;;;;;;1.30;1.20;;;;;;;17.36;45.89;98905.16;5117058;27;40950;-75
2022/08/13 03:12:11;;;;;;;1.00;1.00;;;;;;;17.32;45.95;98906.41;5116999;27;42764;-75
2022/08/13 03:14:39;;;;;;;1.33;1.27;;;;;;;17.31;45.92;98910.06;5099546;27;42873;-76
2022/08/13 03:17:07;;;;;;;1.20;1.10;;;;;;;17.13;46.22;98885.81;5099675;27;42450;-76
2022/08/13 03:19:37;;;;;;;1.23;1.10;;;;;;;17.23;46.35;98905.41;5099673;27;40151;-75
2022/08/13 03:22:06;;;;;;;1.23;1.20;;;;;;;17.20;46.47;98907.50;5116796;27;41793;-76
2022/08/13 03:24:33;;;;;;;1.33;1.33;;;;;;;17.16;46.78;98906.97;5116757;27;42866;-76
2022/08/13 03:27:02;;;;;;;1.30;1.20;;;;;;;17.14;47.11;98894.69;5135153;27;43151;-76
2022/08/13 03:29:30;;;;;;;1.50;1.40;;;;;;;17.11;47.34;98897.63;5116603;27;39076;-76
2022/08/13 03:31:58;;;;;;;1.30;1.20;;;;;;;17.03;46.99;98878.75;5116681;27;42640;-75
2022/08/13 03:34:25;;;;;;;1.10;1.00;;;;;;;17.02;46.95;98887.75;5134980;27;43630;-76
2022/08/13 03:36:54;;;;;;;1.20;1.10;;;;;;;16.93;46.89;98875.19;5116535;27;43269;-76
2022/08/13 03:39:22;;;;;;;1.00;1.00;;;;;;;17.03;46.84;98905.50;5134977;27;40212;-76
2022/08/13 03:41:50;;;;;;;1.57;1.20;;;;;;;16.99;47.09;98901.41;5135069;27;42457;-75
2022/08/13 03:44:18;;;;;;;1.30;1.20;;;;;;;16.88;47.27;98884.47;5099318;27;41878;-75
2022/08/13 03:46:45;;;;;;;2.13;1.00;;;;;;;16.95;47.26;98902.63;5116530;27;43276;-75
2022/08/13 03:49:13;;;;;;;1.43;1.33;;;;;;;16.94;47.25;98909.00;5116662;27;39961;-76
2022/08/13 03:51:41;;;;;;;1.77;1.13;;;;;;;16.83;47.31;98888.50;5099471;27;41801;-76
2022/08/13 03:54:12;;;;;;;1.40;1.27;;;;;;;16.88;47.54;98900.50;5116029;27;41895;-75
2022/08/13 03:56:40;;;;;;;2.90;1.20;;;;;;;16.86;47.66;98899.78;5099323;27;41379;-76
2022/08/13 03:59:13;;;;;;;1.33;1.10;;;;;;;16.85;47.97;98908.81;5116104;27;39785;-75
2022/08/13 04:01:42;;;;;;;1.53;1.33;;;;;;;16.85;47.68;98898.09;5131331;27;42980;-76
2022/08/13 04:04:10;;;;;;;1.20;1.10;;;;;;;16.85;47.85;98900.78;5098910;27;41807;-76
2022/08/13 04:06:38;;;;;;;2.03;1.03;;;;;;;16.78;47.66;98896.09;5115781;27;42817;-76
2022/08/13 04:09:06;;;;;;;1.00;1.00;;;;;;;16.84;47.45;98898.22;5116076;27;40114;-76
2022/08/13 04:11:35;;;;;;;1.40;1.30;;;;;;;16.84;47.76;98903.56;5134564;27;41623;-76
2022/08/13 04:14:04;;;;;;;1.57;1.00;;;;;;;16.84;47.75;98896.41;5115787;27;43238;-75
2022/08/13 04:16:32;;;;;;;1.93;1.33;;;;;;;16.85;48.71;98889.22;5134386;27;42172;-76
2022/08/13 04:19:00;;;;;;;2.20;1.33;;;;;;;16.88;49.63;98883.63;5115749;27;40991;-75
2022/08/13 04:21:31;;;;;;;1.97;1.57;;;;;;;16.93;49.35;98888.56;5115635;27;41857;-75
2022/08/13 04:23:59;;;;;;;1.73;1.50;;;;;;;16.96;49.65;98883.78;5115957;27;43417;-75
2022/08/13 04:26:26;;;;;;;1.30;1.20;;;;;;;17.02;49.57;98890.44;5134144;27;42328;-76
2022/08/13 04:28:57;;;;;;;1.73;1.63;;;;;;;17.04;49.41;98892.00;5134174;27;40067;-77
2022/08/13 04:31:25;;;;;;;2.53;1.83;;;;;;;17.02;49.35;98887.75;5116064;27;42715;-76
2022/08/13 04:33:53;;;;;;;1.50;1.40;;;;;;;17.10;49.23;98894.09;5115532;27;42858;-75
2022/08/13 04:36:20;;;;;;;1.90;1.30;;;;;;;17.11;48.98;98889.59;5115486;27;41134;-76
2022/08/13 04:38:48;;;;;;;1.43;1.30;;;;;;;17.13;48.97;98891.16;5098669;27;39038;-76
2022/08/13 04:41:16;;;;;;;1.90;1.80;;;;;;;17.14;48.91;98892.88;5098516;27;42035;-75
2022/08/13 04:43:44;;;;;;;1.67;1.50;;;;;;;17.17;48.66;98891.75;5115698;27;43878;-75
2022/08/13 04:46:13;;;;;;;1.53;1.40;;;;;;;17.19;49.16;98895.97;5115292;27;42450;-75
2022/08/13 04:48:40;;;;;;;1.43;1.37;;;;;;;17.24;48.92;98898.25;5115253;27;40583;-75
2022/08/13 04:51:08;;;;;;;1.97;1.80;;;;;;;17.28;48.72;98905.03;5098478;27;40703;-75
2022/08/13 04:53:36;;;;;;;1.30;1.20;;;;;;;17.31;48.41;98910.06;5133601;27;43439;-76
2022/08/13 04:56:04;;;;;;;1.40;1.30;;;;;;;17.37;48.59;98914.91;5115390;27;42309;-76
2022/08/13 04:58:36;;;;;;;1.43;1.30;;;;;;;17.46;48.25;98924.78;5115141;27;40087;-76
2022/08/13 05:01:08;;;;;;;1.40;1.23;;;;;;;17.53;48.77;98917.06;5130625;27;41541;-75
2022/08/13 05:03:40;;;;;;;1.27;1.17;;;;;;;17.62;48.31;98918.91;5097994;27;42825;-76
2022/08/13 05:06:12;;;;;;;2.60;1.60;;;;;;;17.72;48.25;98918.94;5112095;27;42039;-76
2022/08/13 05:08:41;;;;;;;4.00;1.60;;;;;;;17.81;48.65;98918.09;5112885;27;39843;-76
2022/08/13 05:11:12;;;;;;;1.50;1.40;;;;;;;17.84;48.21;98907.09;5114980;27;41751;-76
2022/08/13 05:13:42;;;;;;;1.60;1.50;;;;;;;17.92;48.20;98899.22;5097100;27;41672;-75
2022/08/13 05:16:12;;;;;;;1.60;1.50;;;;;;;18.08;48.68;98904.84;5098061;27;43509;-76
2022/08/13 05:18:44;;;;;;;1.60;1.50;;;;;;;18.23;48.20;98913.31;5114671;27;39916;-76
2022/08/13 05:21:13;;;;;;;2.00;1.40;;;;;;;18.25;48.29;98897.91;5097681;27;42479;-76
2022/08/13 05:23:42;;;;;;;1.50;1.40;;;;;;;18.43;48.54;98914.09;5097508;27;43243;-76
2022/08/13 05:26:11;;;;;;;1.90;1.80;;;;;;;18.49;48.48;98913.53;5097698;27;42278;-75
2022/08/13 05:28:39;;;;;;;2.37;2.00;;;;;;;18.55;48.48;98905.75;5114975;27;39900;-76
2022/08/13 05:31:06;;;;;;;2.17;1.90;;;;;;;18.66;48.71;98915.53;5097640;27;40545;-76
2022/08/13 05:33:35;;;;;;;1.97;1.77;;;;;;;18.77;48.33;98911.81;5114814;27;42108;-76
2022/08/13 05:36:05;;;;;;;2.77;2.20;;;;;;;18.87;48.42;98910.78;5132812;27;42203;-76
2022/08/13 05:38:34;;;;;;;1.90;1.70;;;;;;;18.89;48.45;98891.88;5114353;27;41394;-76
2022/08/13 05:41:04;;;;;;;1.70;1.60;;;;;;;19.09;48.16;98911.41;5114752;27;41741;-76
2022/08/13 05:43:35;;;;;;;1.87;1.77;;;;;;;19.23;47.85;98918.97;5114279;27;42918;-76
2022/08/13 05:46:07;;;;;;;2.83;1.90;;;;;;;19.36;47.77;98924.84;5114584;27;42683;-76
2022/08/13 05:48:37;;;;;;;1.60;1.50;;;;;;;19.48;48.04;98923.63;5112043;27;40866;-76
2022/08/13 05:51:08;;;;;;;3.23;1.77;;;;;;;19.58;47.47;98924.44;5097400;27;41114;-76
2022/08/13 05:53:37;;;;;;;2.13;1.83;;;;;;;19.83;47.23;98927.38;5097467;27;42855;-75
2022/08/13 05:56:06;;;;;;;2.70;1.80;;;;;;;20.10;46.35;98930.00;5132880;27;42289;-76
2022/08/13 05:58:34;;;;;;;2.00;1.90;;;;;;;20.28;45.96;98925.44;5097415;27;39561;-76
2022/08/13 06:03:47;;;;;;;1.73;1.63;;;;;;;20.54;45.61;98932.75;5097319;27;42037;-75
2022/08/13 06:06:18;;;;;;;2.23;2.00;;;;;;;20.62;45.63;98936.38;5114380;27;42946;-76
2022/08/13 06:08:46;;;;;;;2.73;1.53;;;;;;;20.69;45.48;98936.56;5113988;27;38877;-75
2022/08/13 06:11:17;;;;;;;4.30;2.80;;;;;;;20.76;45.16;98937.63;5114087;27;40643;-75
2022/08/13 06:13:48;;;;;;;1.77;1.67;;;;;;;20.89;44.96;98940.75;5097299;27;41670;-75
2022/08/13 06:16:18;;;;;;;1.80;1.70;;;;;;;21.01;44.73;98936.78;5114022;27;42210;-76
2022/08/13 06:18:48;;;;;;;1.80;1.70;;;;;;;21.21;44.56;98947.34;5113439;27;41106;-76
2022/08/13 06:21:19;;;;;;;1.70;1.60;;;;;;;21.43;43.87;98938.66;5096909;27;40625;-76
2022/08/13 06:23:48;;;;;;;1.53;1.43;;;;;;;21.65;43.88;98940.75;5130183;27;42569;-76
2022/08/13 06:26:19;;;;;;;1.40;1.30;;;;;;;21.80;43.45;98932.88;5117177;27;42271;-76
2022/08/13 06:28:47;;;;;;;2.87;1.80;;;;;;;21.99;43.56;98937.19;5117888;27;40489;-76
2022/08/13 06:31:16;;;;;;;1.87;1.60;;;;;;;22.20;43.40;98937.53;5136194;27;42258;-76
2022/08/13 06:33:47;;;;;;;2.30;1.70;;;;;;;22.57;42.66;98948.66;5100238;27;42727;-76
2022/08/13 06:36:17;;;;;;;2.07;1.70;;;;;;;23.13;41.85;98952.31;5100784;27;42256;-76
2022/08/13 06:38:48;;;;;;;1.60;1.50;;;;;;;23.69;40.54;98958.53;5117248;27;39948;-75
2022/08/13 06:41:18;;;;;;;1.70;1.60;;;;;;;24.37;39.55;98965.91;5114640;27;41681;-76
2022/08/13 06:43:50;;;;;;;2.13;1.40;;;;;;;24.95;38.62;98975.28;5117124;27;42911;-76
2022/08/13 06:46:22;;;;;;;3.20;1.73;;;;;;;25.42;38.03;98983.91;5132774;27;42223;-76
2022/08/13 06:48:50;;;;;;;2.00;1.90;;;;;;;25.59;37.57;98981.00;5099919;27;41340;-76
2022/08/13 06:51:20;;;;;;;2.03;1.53;;;;;;;25.62;37.10;98986.06;5135500;27;42972;-76
2022/08/13 06:53:48;;;;;;;1.63;1.53;;;;;;;25.52;37.11;98983.59;5117264;27;42719;-75
2022/08/13 06:56:18;;;;;;;1.73;1.60;;;;;;;25.44;36.49;98981.00;5117457;27;41119;-74
2022/08/13 06:58:49;;;;;;;1.57;1.47;;;;;;;25.57;36.72;98983.91;5135734;27;39713;-76
2022/08/13 07:01:19;;;;;;;1.60;1.50;;;;;;;25.67;36.20;98986.34;5100413;27;40726;-76
2022/08/13 07:03:48;;;;;;;1.70;1.60;;;;;;;25.67;36.11;98972.78;5116799;27;44199;-76
2022/08/13 07:06:17;;;;;;;2.60;1.73;;;;;;;25.79;36.35;98967.69;5117033;27;42414;-76
2022/08/13 07:08:47;;;;;;;2.20;1.77;;;;;;;25.90;36.32;98970.75;5116870;27;39910;-76
2022/08/13 07:11:24;;;;;;;1.67;1.43;;;;;;;26.11;36.06;98976.22;5117079;27;41575;-76
2022/08/13 07:13:55;;;;;;;3.00;1.93;;;;;;;26.26;35.70;98962.59;5133307;27;42747;-76
2022/08/13 07:16:25;;;;;;;1.50;1.40;;;;;;;26.43;35.80;98977.63;5099890;27;41415;-75
2022/08/13 07:18:53;;;;;;;1.50;1.40;;;;;;;26.51;35.26;98981.25;5099412;27;40016;-76
2022/08/13 07:21:24;;;;;;;1.63;1.53;;;;;;;26.57;35.37;98984.03;5116957;27;41636;-75
2022/08/13 07:23:54;;;;;;;2.40;1.73;;;;;;;26.66;35.29;98982.88;5116885;27;42561;-76
2022/08/13 07:26:24;;;;;;;1.60;1.50;;;;;;;26.89;35.22;98984.50;5116759;27;42118;-76
2022/08/13 07:28:52;;;;;;;3.47;1.60;;;;;;;27.30;34.30;98996.34;5134890;27;39749;-76
2022/08/13 07:31:25;;;;;;;1.87;1.77;;;;;;;27.53;34.50;98996.91;5116465;27;41880;-76
2022/08/13 07:33:54;;;;;;;2.43;1.43;;;;;;;27.71;34.23;98999.09;5133049;27;43679;-76
2022/08/13 07:36:25;;;;;;;1.53;1.40;;;;;;;27.88;33.61;98999.63;5115960;27;43265;-75
2022/08/13 07:38:54;;;;;;;2.23;1.73;;;;;;;28.05;33.61;98992.78;5099245;27;40338;-75
2022/08/13 07:41:22;;;;;;;2.13;1.63;;;;;;;28.29;33.57;98990.56;5134790;27;41665;-75
2022/08/13 07:43:50;;;;;;;1.63;1.53;;;;;;;28.35;32.64;98989.72;5116151;27;44068;-75
2022/08/13 07:46:19;;;;;;;2.33;1.57;;;;;;;28.43;33.22;98992.28;5134970;27;42368;-75
2022/08/13 07:48:51;;;;;;;2.07;1.80;;;;;;;28.69;32.21;98994.16;5134022;27;40914;-74
2022/08/13 07:51:22;;;;;;;1.80;1.70;;;;;;;29.06;31.69;99001.75;5112603;27;42695;-75
2022/08/13 07:53:53;;;;;;;1.80;1.70;;;;;;;29.36;31.48;98993.97;5113289;27;43529;-75
2022/08/13 07:56:28;;;;;;;3.87;1.80;;;;;;;29.92;30.69;99005.13;5115429;27;41100;-75
2022/08/13 07:59:00;;;;;;;2.17;1.73;;;;;;;30.45;30.16;99004.06;5113129;27;39959;-75
2022/08/13 08:01:28;;;;;;;2.77;1.73;;;;;;;30.58;29.58;98993.06;5098709;27;40727;-75
2022/08/13 08:03:59;;;;;;;3.00;1.70;;;;;;;30.73;29.32;99007.28;5133462;27;42789;-75
2022/08/13 08:06:29;;;;;;;1.90;1.80;;;;;;;30.90;28.82;99015.78;5111951;27;43244;-75
2022/08/13 08:08:57;;;;;;;2.73;2.00;;;;;;;31.15;28.74;99005.69;5097976;27;39636;-76
2022/08/13 08:14:16;;;;;;;1.50;1.40;;;;;;;31.67;28.39;99001.59;5114871;27;43520;-76
2022/08/13 08:16:44;;;;;;;1.70;1.30;;;;;;;32.20;27.48;99016.56;5098531;27;41268;-76
2022/08/13 08:19:16;;;;;;;2.27;1.70;;;;;;;32.95;26.38;99027.94;5098029;27;38608;-76
2022/08/13 08:21:44;;;;;;;3.27;2.00;;;;;;;33.23;25.66;99024.50;5130535;27;41776;-76
2022/08/13 08:24:14;;;;;;;2.90;1.90;;;;;;;33.52;25.43;99035.38;5115605;27;43088;-76
2022/08/13 08:26:47;;;;;;;1.80;1.70;;;;;;;33.62;24.81;99039.47;5116004;27;43258;-76
2022/08/13 08:29:16;;;;;;;1.70;1.60;;;;;;;33.31;24.43;99000.28;5114210;27;40856;-76
2022/08/13 08:31:44;;;;;;;1.80;1.70;;;;;;;33.49;25.40;99024.06;5115581;27;41854;-76
2022/08/13 08:34:12;;;;;;;1.83;1.67;;;;;;;33.44;24.67;99032.16;5115299;27;41879;-76
2022/08/13 08:36:42;;;;;;;1.83;1.73;;;;;;;33.52;25.21;99027.16;5115657;27;43203;-76
2022/08/13 08:44:45;;;;;;;2.60;2.17;;;;;;;36.05;22.13;99048.59;5098093;27;43545;-74
2022/08/13 08:47:13;;;;;;;2.40;2.20;;;;;;;37.62;21.01;99052.94;5097549;27;42266;-76
2022/08/13 08:49:43;;;;;;;2.13;1.73;;;;;;;39.50;19.33;99054.38;5115337;27;41002;-76
2022/08/13 08:52:12;;;;;;;1.73;1.50;;;;;;;40.72;17.92;99065.06;5098376;27;40554;-76
2022/08/13 08:54:41;;;;;;;2.03;1.90;;;;;;;41.42;16.85;99060.91;5115271;27;43317;-77
2022/08/13 08:57:11;;;;;;;2.00;1.90;;;;;;;41.13;17.50;99057.31;5097976;27;42092;-75
2022/08/13 08:59:41;;;;;;;1.50;1.40;;;;;;;40.19;17.93;99053.63;5115342;27;41835;-76
2022/08/13 09:02:18;;;;;;;1.45;1.35;;;;;;;39.29;19.08;99056.31;5098178;27;43593;-76
2022/08/13 09:04:54;;;;;;;2.08;1.98;;;;;;;39.29;19.41;99041.63;5132684;27;43319;-75
2022/08/13 09:07:24;;;;;;;1.63;1.52;;;;;;;39.30;18.86;99051.59;5115191;27;43780;-75
2022/08/13 09:09:56;;;;;;;1.80;1.70;;;;;;;39.40;19.05;99046.03;5098004;27;39965;-76
2022/08/13 09:12:27;;;;;;;2.00;1.90;;;;;;;39.88;18.48;99046.56;5115499;27;40730;-76
2022/08/13 09:14:57;;;;;;;1.70;1.60;;;;;;;40.46;17.72;99042.16;5132644;27;43716;-75
2022/08/13 09:17:27;;;;;;;1.55;1.42;;;;;;;41.57;16.54;99058.03;5133119;27;42272;-76
2022/08/13 09:19:55;;;;;;;1.80;1.50;;;;;;;42.98;15.36;99054.59;5097593;27;41112;-76
2022/08/13 09:22:24;;;;;;;1.35;1.35;;;;;;;43.64;14.70;99056.28;5114712;27;40633;-74
2022/08/13 09:24:53;;;;;;;2.30;1.55;;;;;;;44.09;14.96;99050.13;5114549;27;43129;-76
2022/08/13 09:27:20;;;;;;;1.50;1.40;;;;;;;44.63;14.33;99049.25;5115012;27;40907;-76
2022/08/13 09:29:50;;;;;;;1.40;1.30;;;;;;;45.56;13.78;99064.31;5114804;27;39733;-76
2022/08/13 09:32:18;;;;;;;1.60;1.50;;;;;;;46.35;13.28;99050.34;5114872;27;41486;-76
2022/08/13 09:34:46;;;;;;;1.63;1.52;;;;;;;46.56;12.82;99050.53;5097479;27;41674;-76
2022/08/13 09:37:14;;;;;;;1.30;1.25;;;;;;;46.19;12.59;99045.47;5114366;27;43477;-76
2022/08/13 09:39:50;;;;;;;1.63;1.52;;;;;;;45.57;13.03;99037.16;5097265;27;39953;-76
2022/08/13 09:42:24;;;;;;;1.80;1.70;;;;;;;44.48;14.21;99027.22;5111775;27;41759;-75
2022/08/13 09:44:56;;;;;;;1.40;1.30;;;;;;;43.36;14.98;99015.50;5114113;27;41685;-75
2022/08/13 09:47:25;;;;;;;1.33;1.30;;;;;;;42.60;15.60;99016.72;5114469;27;41991;-75
2022/08/13 09:49:53;;;;;;;2.03;1.60;;;;;;;41.85;16.05;99009.03;5131797;27;41557;-76
2022/08/13 09:52:22;;;;;;;2.08;1.73;;;;;;;41.29;16.28;98997.69;5096622;27;41664;-74
2022/08/13 09:54:49;;;;;;;1.33;1.33;;;;;;;41.31;15.85;99011.25;5096558;27;42779;-76
2022/08/13 09:57:20;;;;;;;2.90;1.52;;;;;;;41.34;15.72;99008.72;5113746;27;43253;-76
2022/08/13 09:59:48;;;;;;;1.67;1.58;;;;;;;41.68;15.60;98988.38;5113048;27;40062;-75
2022/08/13 10:02:18;;;;;;;1.45;1.35;;;;;;;41.80;15.20;99016.59;5113945;27;43153;-76
2022/08/13 10:04:46;;;;;;;1.75;1.65;;;;;;;41.57;15.76;99005.19;5096127;27;41864;-76
2022/08/13 10:07:14;;;;;;;1.40;1.38;;;;;;;41.24;16.20;98992.16;5096390;27;42837;-75
2022/08/13 10:09:42;;;;;;;1.50;1.45;;;;;;;40.72;16.70;98998.41;5131705;27;40053;-75
2022/08/13 10:12:10;;;;;;;2.00;1.70;;;;;;;40.50;16.64;98990.50;5131677;27;41773;-76
2022/08/13 10:14:37;;;;;;;1.70;1.60;;;;;;;40.33;16.08;98998.34;5113203;27;43650;-75
2022/08/13 10:17:06;;;;;;;3.13;1.55;;;;;;;39.84;16.77;98993.53;5113464;27;42089;-75
2022/08/13 10:19:35;;;;;;;1.60;1.50;;;;;;;39.45;16.99;98999.75;5131774;27;40826;-76
2022/08/13 10:22:03;;;;;;;1.50;1.40;;;;;;;39.03;16.98;98985.41;5131568;27;41689;-76
2022/08/13 10:24:31;;;;;;;3.63;1.88;;;;;;;39.10;17.31;98988.69;5112766;27;41860;-75
2022/08/13 10:26:59;;;;;;;1.50;1.40;;;;;;;39.20;17.07;98990.63;5112993;27;42206;-76
2022/08/13 10:29:27;;;;;;;2.97;1.87;;;;;;;38.81;17.50;98991.19;5112678;27;40522;-77
2022/08/13 10:31:54;;;;;;;2.50;1.50;;;;;;;38.39;17.94;98981.13;5113214;27;41735;-76
2022/08/13 10:34:22;;;;;;;1.87;1.67;;;;;;;38.31;18.02;98972.56;5130948;27;42835;-76
2022/08/13 10:36:51;;;;;;;1.40;1.30;;;;;;;38.56;18.05;98964.31;5112752;27;42894;-76
2022/08/13 10:39:19;;;;;;;1.63;1.53;;;;;;;39.21;17.48;98970.13;5131528;27;40736;-75
2022/08/13 10:41:47;;;;;;;1.97;1.60;;;;;;;39.75;16.73;98967.53;5113120;27;41733;-76
2022/08/13 10:44:14;;;;;;;1.47;1.37;;;;;;;40.16;16.77;98971.81;5112766;27;43280;-76
2022/08/13 10:46:46;;;;;;;1.93;1.83;;;;;;;40.41;16.88;98967.25;5112996;27;42222;-76
2022/08/13 10:49:14;;;;;;;2.40;1.67;;;;;;;40.26;17.17;98959.81;5111453;27;39848;-75
2022/08/13 10:51:42;;;;;;;1.70;1.60;;;;;;;40.34;16.71;98963.94;5112832;27;42706;-75
2022/08/13 10:54:11;;;;;;;1.60;1.50;;;;;;;40.63;16.33;98964.84;5112398;27;42824;-75
2022/08/13 10:56:38;;;;;;;1.75;1.65;;;;;;;40.78;15.72;98964.78;5131098;27;42172;-75
2022/08/13 10:59:06;;;;;;;2.58;1.48;;;;;;;41.20;15.43;98968.84;5095244;27;40077;-76
2022/08/13 11:01:34;;;;;;;1.95;1.63;;;;;;;41.73;15.39;98955.78;5095560;27;41697;-75
2022/08/13 11:04:05;;;;;;;1.80;1.70;;;;;;;42.04;15.33;98966.56;5112180;27;43181;-75
2022/08/13 11:06:35;;;;;;;2.40;1.50;;;;;;;42.26;14.87;98959.25;5128026;27;43089;-75
2022/08/13 11:09:05;;;;;;;1.77;1.50;;;;;;;42.56;14.56;98968.28;5095388;27;38931;-75
2022/08/13 11:11:35;;;;;;;2.03;1.50;;;;;;;43.13;14.22;98969.88;5097888;27;39880;-75
2022/08/13 11:14:03;;;;;;;1.58;1.48;;;;;;;43.21;13.94;98960.00;5133976;27;43911;-75
2022/08/13 11:19:16;;;;;;;1.33;1.25;;;;;;;42.26;14.41;98964.00;5098248;27;40131;-75
2022/08/13 11:21:45;;;;;;;1.50;1.40;;;;;;;41.68;14.36;98957.78;5115992;27;41699;-75
2022/08/13 11:24:13;;;;;;;1.60;1.50;;;;;;;43.13;13.43;98961.53;5134773;27;42809;-76
2022/08/13 11:26:42;;;;;;;1.30;1.20;;;;;;;44.69;13.04;98961.34;5134783;27;42257;-76
2022/08/13 11:29:10;;;;;;;1.60;1.50;;;;;;;45.42;12.04;98962.81;5099136;27;41231;-76
2022/08/13 11:31:39;;;;;;;2.55;1.27;;;;;;;45.15;12.01;98954.59;5135071;27;42666;-76
2022/08/13 11:34:07;;;;;;;1.50;1.40;;;;;;;44.54;12.96;98944.94;5098903;27;43354;-75
2022/08/13 11:36:35;;;;;;;2.13;1.58;;;;;;;44.26;12.87;98933.84;5116309;27;43113;-76
2022/08/13 11:39:04;;;;;;;1.65;1.55;;;;;;;44.45;12.75;98942.09;5099411;27;39469;-76
2022/08/13 11:41:31;;;;;;;3.22;1.50;;;;;;;44.50;12.50;98946.72;5134759;27;41792;-75
2022/08/13 11:44:01;;;;;;;1.40;1.30;;;;;;;44.56;12.71;98942.66;5134231;27;42454;-75
2022/08/13 11:46:29;;;;;;;1.30;1.20;;;;;;;44.90;11.78;98950.47;5134454;27;43278;-75
2022/08/13 11:48:56;;;;;;;1.58;1.48;;;;;;;45.11;11.89;98943.22;5115797;27;38887;-75
2022/08/13 11:51:24;;;;;;;1.42;1.33;;;;;;;45.59;11.32;98954.53;5098491;27;42961;-75
2022/08/13 11:53:51;;;;;;;4.00;1.13;;;;;;;45.30;11.22;98951.41;5115952;27;41690;-75
2022/08/13 11:56:19;;;;;;;0.95;0.95;;;;;;;45.59;11.61;98940.53;5115755;27;41645;-74
2022/08/13 11:58:47;;;;;;;1.40;1.27;;;;;;;46.42;10.94;98952.59;5116077;27;40916;-75
2022/08/13 12:01:16;;;;;;;2.03;1.38;;;;;;;47.54;10.91;98954.41;5134414;27;41710;-75
2022/08/13 12:03:44;;;;;;;1.17;1.17;;;;;;;48.58;10.05;98944.19;5115890;27;42869;-75
2022/08/13 12:06:12;;;;;;;1.50;1.40;;;;;;;49.22;9.64;98943.72;5134138;27;42028;-75
2022/08/13 12:08:40;;;;;;;1.45;1.35;;;;;;;49.86;9.60;98936.66;5098848;27;38859;-76